sensor_id;sensor_type;location;lat;lon;timestamp;pressure;altitude;pressure_sealevel;temperature;humidity
48872;BME280;36154;51.674;7.824;2023-03-03T00:00:57;101571.19;;;20.08;42.27
48872;BME280;36154;51.674;7.824;2023-03-03T00:03:24;101566.00;;;20.09;42.00
48872;BME280;36154;51.674;7.824;2023-03-03T00:05:50;101573.75;;;20.09;41.97
48872;BME280;36154;51.674;7.824;2023-03-03T00:08:17;101566.00;;;20.08;42.14
48872;BME280;36154;51.674;7.824;2023-03-03T00:10:43;101560.81;;;20.08;42.14
48872;BME280;36154;51.674;7.824;2023-03-03T00:13:15;101548.78;;;20.07;42.16
48872;BME280;36154;51.674;7.824;2023-03-03T00:15:41;101557.38;;;20.09;41.94
48872;BME280;36154;51.674;7.824;2023-03-03T00:18:29;101558.25;;;20.08;42.07
48872;BME280;36154;51.674;7.824;2023-03-03T00:20:57;101562.56;;;20.07;42.05
48872;BME280;36154;51.674;7.824;2023-03-03T00:23:35;101565.16;;;20.07;41.94
48872;BME280;36154;51.674;7.824;2023-03-03T00:26:03;101571.19;;;20.06;42.17
48872;BME280;36154;51.674;7.824;2023-03-03T00:28:51;101558.25;;;20.06;42.13
48872;BME280;36154;51.674;7.824;2023-03-03T00:31:51;101546.22;;;20.05;41.94
48872;BME280;36154;51.674;7.824;2023-03-03T00:36:41;101555.72;;;20.05;42.45
48872;BME280;36154;51.674;7.824;2023-03-03T00:39:43;101565.22;;;20.03;41.82
48872;BME280;36154;51.674;7.824;2023-03-03T00:42:16;101564.34;;;20.04;42.09
48872;BME280;36154;51.674;7.824;2023-03-03T00:44:43;101569.50;;;20.04;41.99
48872;BME280;36154;51.674;7.824;2023-03-03T00:47:17;101562.63;;;20.03;42.10
48872;BME280;36154;51.674;7.824;2023-03-03T00:49:49;101566.94;;;20.02;42.10
48872;BME280;36154;51.674;7.824;2023-03-03T00:52:16;101563.50;;;20.02;42.10
48872;BME280;36154;51.674;7.824;2023-03-03T00:54:42;101572.97;;;20.03;42.04
48872;BME280;36154;51.674;7.824;2023-03-03T00:57:07;101572.97;;;20.03;42.13
48872;BME280;36154;51.674;7.824;2023-03-03T00:59:33;101560.94;;;20.02;42.10
48872;BME280;36154;51.674;7.824;2023-03-03T01:01:59;101563.50;;;20.02;41.83
48872;BME280;36154;51.674;7.824;2023-03-03T01:04:24;101570.38;;;20.03;42.03
48872;BME280;36154;51.674;7.824;2023-03-03T01:06:49;101574.69;;;20.02;42.19
48872;BME280;36154;51.674;7.824;2023-03-03T01:09:15;101566.09;;;20.02;42.02
48872;BME280;36154;51.674;7.824;2023-03-03T01:11:40;101568.69;;;20.02;42.08
48872;BME280;36154;51.674;7.824;2023-03-03T01:14:08;101570.41;;;20.01;42.20
48872;BME280;36154;51.674;7.824;2023-03-03T01:16:33;101561.78;;;20.01;42.06
48872;BME280;36154;51.674;7.824;2023-03-03T01:18:59;101555.75;;;20.02;42.18
48872;BME280;36154;51.674;7.824;2023-03-03T01:21:24;101552.28;;;20.01;42.09
48872;BME280;36154;51.674;7.824;2023-03-03T01:23:49;101560.03;;;20.01;41.83
48872;BME280;36154;51.674;7.824;2023-03-03T01:26:15;101557.47;;;20.00;42.08
48872;BME280;36154;51.674;7.824;2023-03-03T01:28:40;101557.47;;;20.00;42.13
48872;BME280;36154;51.674;7.824;2023-03-03T01:31:05;101562.66;;;20.00;42.18
48872;BME280;36154;51.674;7.824;2023-03-03T01:33:31;101571.28;;;20.02;42.24
48872;BME280;36154;51.674;7.824;2023-03-03T01:35:57;101561.81;;;19.99;42.13
48872;BME280;36154;51.674;7.824;2023-03-03T01:38:22;101563.53;;;20.00;42.30
48872;BME280;36154;51.674;7.824;2023-03-03T01:40:55;101560.97;;;19.99;42.12
48872;BME280;36154;51.674;7.824;2023-03-03T01:43:21;101552.31;;;20.00;42.30
48872;BME280;36154;51.674;7.824;2023-03-03T01:48:28;101548.88;;;19.98;42.26
48872;BME280;36154;51.674;7.824;2023-03-03T01:51:05;101544.59;;;19.98;42.17
48872;BME280;36154;51.674;7.824;2023-03-03T01:53:45;101543.72;;;19.98;42.31
48872;BME280;36154;51.674;7.824;2023-03-03T01:56:12;101551.47;;;19.98;42.30
48872;BME280;36154;51.674;7.824;2023-03-03T01:58:41;101541.13;;;19.98;42.39
48872;BME280;36154;51.674;7.824;2023-03-03T02:01:14;101550.63;;;19.96;42.20
48872;BME280;36154;51.674;7.824;2023-03-03T02:03:42;101553.22;;;19.97;42.32
48872;BME280;36154;51.674;7.824;2023-03-03T02:06:30;101552.38;;;19.97;42.20
48872;BME280;36154;51.674;7.824;2023-03-03T02:11:45;101567.88;;;19.97;42.30
48872;BME280;36154;51.674;7.824;2023-03-03T02:14:11;101578.25;;;19.95;42.32
48872;BME280;36154;51.674;7.824;2023-03-03T02:16:38;101559.25;;;19.94;42.09
48872;BME280;36154;51.674;7.824;2023-03-03T02:19:08;101555.81;;;19.96;42.33
48872;BME280;36154;51.674;7.824;2023-03-03T02:21:35;101550.63;;;19.96;42.17
48872;BME280;36154;51.674;7.824;2023-03-03T02:26:38;101548.06;;;19.94;42.09
48872;BME280;36154;51.674;7.824;2023-03-03T02:29:05;101558.41;;;19.96;42.15
48872;BME280;36154;51.674;7.824;2023-03-03T02:31:31;101553.22;;;19.96;42.23
48872;BME280;36154;51.674;7.824;2023-03-03T02:33:57;101558.41;;;19.94;42.04
48872;BME280;36154;51.674;7.824;2023-03-03T02:36:41;101569.59;;;19.94;42.20
48872;BME280;36154;51.674;7.824;2023-03-03T02:39:23;101559.25;;;19.94;42.07
48872;BME280;36154;51.674;7.824;2023-03-03T02:44:36;101575.66;;;19.93;42.09
48872;BME280;36154;51.674;7.824;2023-03-03T02:47:02;101566.19;;;19.92;42.12
48872;BME280;36154;51.674;7.824;2023-03-03T02:49:30;101554.16;;;19.91;42.00
48872;BME280;36154;51.674;7.824;2023-03-03T02:51:56;101550.66;;;19.92;42.22
48872;BME280;36154;51.674;7.824;2023-03-03T02:54:24;101556.69;;;19.93;42.22
48872;BME280;36154;51.674;7.824;2023-03-03T02:56:50;101561.00;;;19.92;42.18
48872;BME280;36154;51.674;7.824;2023-03-03T02:59:15;101545.50;;;19.91;42.19
48872;BME280;36154;51.674;7.824;2023-03-03T03:01:41;101544.66;;;19.92;42.16
48872;BME280;36154;51.674;7.824;2023-03-03T03:04:10;101545.50;;;19.92;42.03
48872;BME280;36154;51.674;7.824;2023-03-03T03:06:36;101552.41;;;19.92;42.15
48872;BME280;36154;51.674;7.824;2023-03-03T03:09:02;101555.00;;;19.92;42.12
48872;BME280;36154;51.674;7.824;2023-03-03T03:11:27;101564.50;;;19.91;42.09
48872;BME280;36154;51.674;7.824;2023-03-03T03:13:52;101570.50;;;19.92;42.07
48872;BME280;36154;51.674;7.824;2023-03-03T03:16:18;101570.50;;;19.92;42.08
48872;BME280;36154;51.674;7.824;2023-03-03T03:18:44;101551.56;;;19.91;42.08
48872;BME280;36154;51.674;7.824;2023-03-03T03:21:10;101564.50;;;19.91;42.11
48872;BME280;36154;51.674;7.824;2023-03-03T03:23:37;101573.13;;;19.90;42.13
48872;BME280;36154;51.674;7.824;2023-03-03T03:26:03;101579.13;;;19.91;42.10
48872;BME280;36154;51.674;7.824;2023-03-03T03:28:29;101574.84;;;19.91;42.23
48872;BME280;36154;51.674;7.824;2023-03-03T03:30:54;101573.13;;;19.90;42.18
48872;BME280;36154;51.674;7.824;2023-03-03T03:33:19;101576.56;;;19.89;42.00
48872;BME280;36154;51.674;7.824;2023-03-03T03:35:45;101571.38;;;19.89;42.27
48872;BME280;36154;51.674;7.824;2023-03-03T03:38:12;101570.53;;;19.89;42.12
48872;BME280;36154;51.674;7.824;2023-03-03T03:40:38;101580.03;;;19.88;42.47
48872;BME280;36154;51.674;7.824;2023-03-03T03:43:03;101570.53;;;19.89;42.22
48872;BME280;36154;51.674;7.824;2023-03-03T03:45:29;101574.88;;;19.88;42.06
48872;BME280;36154;51.674;7.824;2023-03-03T03:47:54;101574.88;;;19.88;42.16
48872;BME280;36154;51.674;7.824;2023-03-03T03:50:19;101569.69;;;19.88;42.18
48872;BME280;36154;51.674;7.824;2023-03-03T03:52:45;101577.47;;;19.88;42.21
48872;BME280;36154;51.674;7.824;2023-03-03T03:55:10;101580.03;;;19.88;42.18
48872;BME280;36154;51.674;7.824;2023-03-03T03:57:35;101574.00;;;19.86;42.26
48872;BME280;36154;51.674;7.824;2023-03-03T04:00:01;101578.31;;;19.87;42.36
48872;BME280;36154;51.674;7.824;2023-03-03T04:02:26;101576.59;;;19.86;42.07
48872;BME280;36154;51.674;7.824;2023-03-03T04:04:51;101574.00;;;19.86;42.28
48872;BME280;36154;51.674;7.824;2023-03-03T04:07:17;101576.59;;;19.86;42.18
48872;BME280;36154;51.674;7.824;2023-03-03T04:09:42;101576.59;;;19.86;42.14
48872;BME280;36154;51.674;7.824;2023-03-03T04:12:07;101580.06;;;19.85;42.34
48872;BME280;36154;51.674;7.824;2023-03-03T04:14:32;101582.66;;;19.85;42.07
48872;BME280;36154;51.674;7.824;2023-03-03T04:16:58;101580.06;;;19.85;42.30
48872;BME280;36154;51.674;7.824;2023-03-03T04:19:23;101583.50;;;19.86;42.06
48872;BME280;36154;51.674;7.824;2023-03-03T04:21:48;101564.56;;;19.85;42.32
48872;BME280;36154;51.674;7.824;2023-03-03T04:24:15;101572.31;;;19.84;42.23
48872;BME280;36154;51.674;7.824;2023-03-03T04:26:40;101583.50;;;19.84;42.21
48872;BME280;36154;51.674;7.824;2023-03-03T04:29:05;101574.06;;;19.83;42.06
48872;BME280;36154;51.674;7.824;2023-03-03T04:31:31;101574.91;;;19.84;42.13
48872;BME280;36154;51.674;7.824;2023-03-03T04:33:56;101577.50;;;19.84;41.98
48872;BME280;36154;51.674;7.824;2023-03-03T04:36:21;101571.47;;;19.83;42.26
48872;BME280;36154;51.674;7.824;2023-03-03T04:38:47;101572.31;;;19.84;42.08
48872;BME280;36154;51.674;7.824;2023-03-03T04:41:13;101568.91;;;19.83;42.25
48872;BME280;36154;51.674;7.824;2023-03-03T04:43:38;101577.50;;;19.82;42.09
48872;BME280;36154;51.674;7.824;2023-03-03T04:46:04;101581.84;;;19.82;42.06
48872;BME280;36154;51.674;7.824;2023-03-03T04:48:29;101580.94;;;19.83;42.13
48872;BME280;36154;51.674;7.824;2023-03-03T04:50:55;101586.13;;;19.83;42.21
48872;BME280;36154;51.674;7.824;2023-03-03T04:53:20;101580.09;;;19.82;42.09
48872;BME280;36154;51.674;7.824;2023-03-03T04:55:45;101580.97;;;19.81;42.11
48872;BME280;36154;51.674;7.824;2023-03-03T04:58:11;101583.53;;;19.81;42.21
48872;BME280;36154;51.674;7.824;2023-03-03T05:00:36;101584.41;;;19.82;42.24
48872;BME280;36154;51.674;7.824;2023-03-03T05:03:02;101587.88;;;19.81;42.01
48872;BME280;36154;51.674;7.824;2023-03-03T05:05:27;101587.88;;;19.81;42.01
48872;BME280;36154;51.674;7.824;2023-03-03T05:07:53;101590.44;;;19.82;41.70
48872;BME280;36154;51.674;7.824;2023-03-03T05:10:18;101590.44;;;19.84;41.83
48872;BME280;36154;51.674;7.824;2023-03-03T05:12:44;101593.84;;;19.87;41.80
48872;BME280;36154;51.674;7.824;2023-03-03T05:15:09;101594.66;;;19.91;42.00
48872;BME280;36154;51.674;7.824;2023-03-03T05:17:35;101599.78;;;19.96;42.09
48872;BME280;36154;51.674;7.824;2023-03-03T05:20:00;101592.00;;;19.99;41.90
48872;BME280;36154;51.674;7.824;2023-03-03T05:22:26;101591.06;;;20.03;42.10
48872;BME280;36154;51.674;7.824;2023-03-03T05:24:51;101585.00;;;20.07;41.94
48872;BME280;36154;51.674;7.824;2023-03-03T05:27:18;101577.22;;;20.10;41.98
48872;BME280;36154;51.674;7.824;2023-03-03T05:29:43;101578.03;;;20.12;41.90
48872;BME280;36154;51.674;7.824;2023-03-03T05:32:09;101581.47;;;20.14;41.87
48872;BME280;36154;51.674;7.824;2023-03-03T05:34:34;101584.84;;;20.19;42.09
48872;BME280;36154;51.674;7.824;2023-03-03T05:36:59;101585.69;;;20.21;42.13
48872;BME280;36154;51.674;7.824;2023-03-03T05:39:24;101583.06;;;20.24;42.00
48872;BME280;36154;51.674;7.824;2023-03-03T05:41:50;101595.97;;;20.26;41.93
48872;BME280;36154;51.674;7.824;2023-03-03T05:44:15;101583.03;;;20.27;41.89
48872;BME280;36154;51.674;7.824;2023-03-03T05:46:40;101586.44;;;20.29;41.79
48872;BME280;36154;51.674;7.824;2023-03-03T05:49:06;101582.09;;;20.31;42.04
48872;BME280;36154;51.674;7.824;2023-03-03T05:51:32;101589.88;;;20.31;41.79
48872;BME280;36154;51.674;7.824;2023-03-03T05:53:57;101586.41;;;20.33;41.74
48872;BME280;36154;51.674;7.824;2023-03-03T05:56:22;101595.91;;;20.34;41.92
48872;BME280;36154;51.674;7.824;2023-03-03T05:58:47;101591.59;;;20.33;41.83
48872;BME280;36154;51.674;7.824;2023-03-03T06:01:13;101597.59;;;20.33;41.66
48872;BME280;36154;51.674;7.824;2023-03-03T06:03:38;101595.91;;;20.32;41.68
48872;BME280;36154;51.674;7.824;2023-03-03T06:06:03;101605.38;;;20.31;41.66
48872;BME280;36154;51.674;7.824;2023-03-03T06:08:29;101610.56;;;20.31;41.62
48872;BME280;36154;51.674;7.824;2023-03-03T06:10:56;101612.31;;;20.29;41.90
48872;BME280;36154;51.674;7.824;2023-03-03T06:13:21;101613.19;;;20.30;41.90
48872;BME280;36154;51.674;7.824;2023-03-03T06:15:47;101612.31;;;20.29;41.76
48872;BME280;36154;51.674;7.824;2023-03-03T06:18:12;101611.53;;;20.24;41.81
48872;BME280;36154;51.674;7.824;2023-03-03T06:20:37;101615.81;;;20.28;41.89
48872;BME280;36154;51.674;7.824;2023-03-03T06:23:03;101614.09;;;20.27;41.87
48872;BME280;36154;51.674;7.824;2023-03-03T06:25:28;101627.03;;;20.27;41.86
48872;BME280;36154;51.674;7.824;2023-03-03T06:27:54;101623.59;;;20.27;41.54
48872;BME280;36154;51.674;7.824;2023-03-03T06:30:19;101626.19;;;20.25;41.60
48872;BME280;36154;51.674;7.824;2023-03-03T06:32:45;101628.78;;;20.24;41.66
48872;BME280;36154;51.674;7.824;2023-03-03T06:35:10;101630.50;;;20.25;41.76
48872;BME280;36154;51.674;7.824;2023-03-03T06:37:36;101642.59;;;20.24;41.96
48872;BME280;36154;51.674;7.824;2023-03-03T06:40:01;101637.38;;;20.26;42.24
48872;BME280;36154;51.674;7.824;2023-03-03T06:42:26;101639.13;;;20.25;42.59
48872;BME280;36154;51.674;7.824;2023-03-03T06:44:52;101640.84;;;20.25;42.64
48872;BME280;36154;51.674;7.824;2023-03-03T06:47:17;101638.25;;;20.25;42.80
48872;BME280;36154;51.674;7.824;2023-03-03T06:49:42;101640.00;;;20.24;43.01
48872;BME280;36154;51.674;7.824;2023-03-03T06:52:12;101640.88;;;20.23;43.52
48872;BME280;36154;51.674;7.824;2023-03-03T06:54:38;101649.50;;;20.24;43.59
48872;BME280;36154;51.674;7.824;2023-03-03T06:57:17;101648.66;;;20.23;43.50
48872;BME280;36154;51.674;7.824;2023-03-03T06:59:46;101654.69;;;20.24;43.49
48872;BME280;36154;51.674;7.824;2023-03-03T07:02:16;101649.50;;;20.22;43.47
48872;BME280;36154;51.674;7.824;2023-03-03T07:04:41;101654.69;;;20.22;43.51
48872;BME280;36154;51.674;7.824;2023-03-03T07:07:15;101654.69;;;20.22;43.98
48872;BME280;36154;51.674;7.824;2023-03-03T07:09:43;101654.69;;;20.22;43.57
48872;BME280;36154;51.674;7.824;2023-03-03T07:12:11;101659.88;;;20.21;43.48
48872;BME280;36154;51.674;7.824;2023-03-03T07:14:43;101664.19;;;20.20;43.73
48872;BME280;36154;51.674;7.824;2023-03-03T07:17:15;101664.19;;;20.22;43.68
48872;BME280;36154;51.674;7.824;2023-03-03T07:19:42;101672.81;;;20.22;43.64
48872;BME280;36154;51.674;7.824;2023-03-03T07:22:19;101666.78;;;20.20;43.88
48872;BME280;36154;51.674;7.824;2023-03-03T07:24:56;101679.72;;;20.20;44.09
48872;BME280;36154;51.674;7.824;2023-03-03T07:27:29;101673.69;;;20.20;44.10
48872;BME280;36154;51.674;7.824;2023-03-03T07:32:46;101678.00;;;20.19;44.05
48872;BME280;36154;51.674;7.824;2023-03-03T07:35:40;101681.44;;;20.18;44.30
48872;BME280;36154;51.674;7.824;2023-03-03T07:38:18;101685.78;;;20.18;44.28
48872;BME280;36154;51.674;7.824;2023-03-03T07:40:50;101690.13;;;20.16;44.13
48872;BME280;36154;51.674;7.824;2023-03-03T07:43:36;101692.69;;;20.17;44.30
48872;BME280;36154;51.674;7.824;2023-03-03T07:48:47;101692.72;;;20.16;44.20
48872;BME280;36154;51.674;7.824;2023-03-03T07:53:55;101702.22;;;20.15;44.20
48872;BME280;36154;51.674;7.824;2023-03-03T07:56:36;101706.50;;;20.15;44.26
48872;BME280;36154;51.674;7.824;2023-03-03T07:59:14;101707.41;;;20.13;44.30
48872;BME280;36154;51.674;7.824;2023-03-03T08:01:43;101705.66;;;20.14;44.09
48872;BME280;36154;51.674;7.824;2023-03-03T08:04:21;101710.84;;;20.12;44.15
48872;BME280;36154;51.674;7.824;2023-03-03T08:06:51;101704.81;;;20.12;44.09
48872;BME280;36154;51.674;7.824;2023-03-03T08:11:48;101715.16;;;20.12;43.94
48872;BME280;36154;51.674;7.824;2023-03-03T08:14:24;101713.44;;;20.11;43.98
48872;BME280;36154;51.674;7.824;2023-03-03T08:16:50;101721.22;;;20.11;44.10
48872;BME280;36154;51.674;7.824;2023-03-03T08:19:16;101721.22;;;20.11;44.09
48872;BME280;36154;51.674;7.824;2023-03-03T08:21:42;101726.38;;;20.11;44.06
48872;BME280;36154;51.674;7.824;2023-03-03T08:24:07;101730.72;;;20.09;43.95
48872;BME280;36154;51.674;7.824;2023-03-03T08:26:32;101728.97;;;20.09;43.76
48872;BME280;36154;51.674;7.824;2023-03-03T08:28:58;101728.97;;;20.09;43.89
48872;BME280;36154;51.674;7.824;2023-03-03T08:31:23;101727.28;;;20.08;43.79
48872;BME280;36154;51.674;7.824;2023-03-03T08:33:48;101736.75;;;20.08;43.72
48872;BME280;36154;51.674;7.824;2023-03-03T08:36:14;101733.31;;;20.07;43.84
48872;BME280;36154;51.674;7.824;2023-03-03T08:38:40;101728.16;;;20.06;43.73
48872;BME280;36154;51.674;7.824;2023-03-03T08:41:06;101730.75;;;20.06;43.76
48872;BME280;36154;51.674;7.824;2023-03-03T08:43:32;101729.06;;;20.05;43.74
48872;BME280;36154;51.674;7.824;2023-03-03T08:45:59;101729.06;;;20.05;43.83
48872;BME280;36154;51.674;7.824;2023-03-03T08:48:26;101731.63;;;20.05;43.66
48872;BME280;36154;51.674;7.824;2023-03-03T08:50:51;101725.59;;;20.03;43.77
48872;BME280;36154;51.674;7.824;2023-03-03T08:53:17;101731.63;;;20.05;43.56
48872;BME280;36154;51.674;7.824;2023-03-03T08:55:43;101730.75;;;20.04;43.79
48872;BME280;36154;51.674;7.824;2023-03-03T08:58:09;101735.09;;;20.04;43.56
48872;BME280;36154;51.674;7.824;2023-03-03T09:00:34;101726.47;;;20.03;43.52
48872;BME280;36154;51.674;7.824;2023-03-03T09:03:02;101728.19;;;20.03;43.57
48872;BME280;36154;51.674;7.824;2023-03-03T09:05:27;101731.66;;;20.02;43.63
48872;BME280;36154;51.674;7.824;2023-03-03T09:07:53;101727.34;;;20.01;43.70
48872;BME280;36154;51.674;7.824;2023-03-03T09:10:22;101732.53;;;20.01;43.66
48872;BME280;36154;51.674;7.824;2023-03-03T09:12:52;101737.69;;;20.01;43.72
48872;BME280;36154;51.674;7.824;2023-03-03T09:15:31;101736.84;;;20.00;43.62
48872;BME280;36154;51.674;7.824;2023-03-03T09:17:59;101736.00;;;19.98;43.65
48872;BME280;36154;51.674;7.824;2023-03-03T09:20:31;101748.06;;;19.99;43.59
48872;BME280;36154;51.674;7.824;2023-03-03T09:25:42;101750.66;;;19.98;43.38
48872;BME280;36154;51.674;7.824;2023-03-03T09:28:31;101743.78;;;19.97;43.30
48872;BME280;36154;51.674;7.824;2023-03-03T09:30:59;101744.63;;;19.96;43.38
48872;BME280;36154;51.674;7.824;2023-03-03T09:33:28;101754.13;;;19.97;43.58
48872;BME280;36154;51.674;7.824;2023-03-03T09:36:28;101752.41;;;19.96;43.31
48872;BME280;36154;51.674;7.824;2023-03-03T09:38:55;101757.56;;;19.96;43.44
48872;BME280;36154;51.674;7.824;2023-03-03T09:41:43;101746.38;;;19.93;43.47
48872;BME280;36154;51.674;7.824;2023-03-03T09:46:59;101757.59;;;19.92;43.48
48872;BME280;36154;51.674;7.824;2023-03-03T09:49:45;101752.41;;;19.92;43.45
48872;BME280;36154;51.674;7.824;2023-03-03T09:52:30;101750.69;;;19.93;43.40
48872;BME280;36154;51.674;7.824;2023-03-03T09:55:25;101761.91;;;19.92;43.35
48872;BME280;36154;51.674;7.824;2023-03-03T10:01:29;101756.75;;;19.89;43.33
48872;BME280;36154;51.674;7.824;2023-03-03T10:12:46;101769.72;;;19.87;43.30
48872;BME280;36154;51.674;7.824;2023-03-03T10:15:26;101774.03;;;19.87;43.38
48872;BME280;36154;51.674;7.824;2023-03-03T10:18:02;101771.44;;;19.87;43.37
48872;BME280;36154;51.674;7.824;2023-03-03T10:23:51;101780.03;;;19.90;43.20
48872;BME280;36154;51.674;7.824;2023-03-03T10:32:13;101783.41;;;20.02;43.25
48872;BME280;36154;51.674;7.824;2023-03-03T10:35:22;101780.78;;;20.05;43.41
48872;BME280;36154;51.674;7.824;2023-03-03T10:38:17;101785.91;;;20.09;43.25
48872;BME280;36154;51.674;7.824;2023-03-03T10:43:33;101797.94;;;20.15;43.35
48872;BME280;36154;51.674;7.824;2023-03-03T10:51:48;101789.25;;;20.24;43.18
48872;BME280;36154;51.674;7.824;2023-03-03T10:54:22;101791.81;;;20.25;43.20
48872;BME280;36154;51.674;7.824;2023-03-03T11:00:12;101786.63;;;20.28;43.18
48872;BME280;36154;51.674;7.824;2023-03-03T11:05:45;101784.88;;;20.30;43.13
48872;BME280;36154;51.674;7.824;2023-03-03T11:08:19;101784.88;;;20.30;43.12
48872;BME280;36154;51.674;7.824;2023-03-03T11:13:26;101790.03;;;20.30;42.93
48872;BME280;36154;51.674;7.824;2023-03-03T11:18:32;101795.22;;;20.29;43.00
48872;BME280;36154;51.674;7.824;2023-03-03T11:21:12;101788.34;;;20.26;42.99
48872;BME280;36154;51.674;7.824;2023-03-03T11:23:52;101784.06;;;20.25;43.11
48872;BME280;36154;51.674;7.824;2023-03-03T11:29:22;101788.34;;;20.25;43.04
48872;BME280;36154;51.674;7.824;2023-03-03T11:31:57;101788.34;;;20.25;42.94
48872;BME280;36154;51.674;7.824;2023-03-03T11:34:49;101785.81;;;20.23;42.96
48872;BME280;36154;51.674;7.824;2023-03-03T11:37:23;101774.59;;;20.21;42.88
48872;BME280;36154;51.674;7.824;2023-03-03T11:39:52;101768.56;;;20.19;43.02
48872;BME280;36154;51.674;7.824;2023-03-03T11:42:27;101774.59;;;20.18;43.11
48872;BME280;36154;51.674;7.824;2023-03-03T11:45:01;101777.19;;;20.18;43.01
48872;BME280;36154;51.674;7.824;2023-03-03T11:47:38;101768.59;;;20.16;42.96
48872;BME280;36154;51.674;7.824;2023-03-03T11:50:33;101766.88;;;20.17;42.90
48872;BME280;36154;51.674;7.824;2023-03-03T11:55:47;101762.56;;;20.16;42.86
48872;BME280;36154;51.674;7.824;2023-03-03T11:58:21;101759.13;;;20.15;42.92
48872;BME280;36154;51.674;7.824;2023-03-03T12:03:48;101750.50;;;20.13;42.95
48872;BME280;36154;51.674;7.824;2023-03-03T12:09:18;101738.47;;;20.12;42.88
48872;BME280;36154;51.674;7.824;2023-03-03T12:17:43;101741.06;;;20.09;42.92
48872;BME280;36154;51.674;7.824;2023-03-03T12:20:56;101736.75;;;20.08;42.79
48872;BME280;36154;51.674;7.824;2023-03-03T12:26:09;101733.34;;;20.06;42.83
48872;BME280;36154;51.674;7.824;2023-03-03T12:28:40;101730.75;;;20.06;42.69
48872;BME280;36154;51.674;7.824;2023-03-03T12:31:22;101723.88;;;20.05;42.72
48872;BME280;36154;51.674;7.824;2023-03-03T12:33:56;101731.63;;;20.05;42.67
48872;BME280;36154;51.674;7.824;2023-03-03T12:37:03;101729.06;;;20.05;42.76
48872;BME280;36154;51.674;7.824;2023-03-03T12:39:40;101723.00;;;20.03;42.70
48872;BME280;36154;51.674;7.824;2023-03-03T12:42:32;101716.13;;;20.03;42.72
48872;BME280;36154;51.674;7.824;2023-03-03T12:48:15;101716.13;;;20.03;42.61
48872;BME280;36154;51.674;7.824;2023-03-03T12:53:51;101726.41;;;20.08;42.69
48872;BME280;36154;51.674;7.824;2023-03-03T12:59:26;101717.78;;;20.09;42.62
48872;BME280;36154;51.674;7.824;2023-03-03T13:04:50;101713.47;;;20.09;42.45
48872;BME280;36154;51.674;7.824;2023-03-03T13:13:02;101712.63;;;20.07;42.60
48872;BME280;36154;51.674;7.824;2023-03-03T13:15:43;101707.47;;;20.06;42.59
48872;BME280;36154;51.674;7.824;2023-03-03T13:18:28;101705.72;;;20.06;42.40
48872;BME280;36154;51.674;7.824;2023-03-03T13:20:59;101703.13;;;20.06;42.36
48872;BME280;36154;51.674;7.824;2023-03-03T13:26:15;101712.63;;;20.07;42.41
48872;BME280;36154;51.674;7.824;2023-03-03T13:31:45;101704.00;;;20.10;42.28
48872;BME280;36154;51.674;7.824;2023-03-03T13:34:43;101710.00;;;20.12;42.40
48872;BME280;36154;51.674;7.824;2023-03-03T13:37:19;101703.94;;;20.13;42.19
48872;BME280;36154;51.674;7.824;2023-03-03T13:39:58;101703.91;;;20.16;42.26
48872;BME280;36154;51.674;7.824;2023-03-03T13:42:37;101695.28;;;20.19;42.05
48872;BME280;36154;51.674;7.824;2023-03-03T13:50:47;101697.75;;;20.28;42.50
48872;BME280;36154;51.674;7.824;2023-03-03T13:53:36;101696.03;;;20.30;42.33
48872;BME280;36154;51.674;7.824;2023-03-03T13:59:16;101691.69;;;20.30;42.82
48872;BME280;36154;51.674;7.824;2023-03-03T14:07:44;101682.09;;;20.40;42.64
48872;BME280;36154;51.674;7.824;2023-03-03T14:10:17;101687.22;;;20.43;42.54
48872;BME280;36154;51.674;7.824;2023-03-03T14:12:53;101680.31;;;20.45;42.77
48872;BME280;36154;51.674;7.824;2023-03-03T14:15:24;101681.13;;;20.52;42.45
48872;BME280;36154;51.674;7.824;2023-03-03T14:18:10;101677.63;;;20.56;42.27
48872;BME280;36154;51.674;7.824;2023-03-03T14:20:46;101675.84;;;20.58;42.05
48872;BME280;36154;51.674;7.824;2023-03-03T14:23:18;101672.38;;;20.62;41.95
48872;BME280;36154;51.674;7.824;2023-03-03T14:28:21;101657.66;;;20.66;42.02
48872;BME280;36154;51.674;7.824;2023-03-03T14:30:47;101657.66;;;20.66;41.89
48872;BME280;36154;51.674;7.824;2023-03-03T14:38:35;101656.75;;;20.68;41.85
48872;BME280;36154;51.674;7.824;2023-03-03T14:41:14;101655.00;;;20.71;42.38
48872;BME280;36154;51.674;7.824;2023-03-03T14:43:41;101653.25;;;20.73;42.25
48872;BME280;36154;51.674;7.824;2023-03-03T14:46:31;101652.34;;;20.75;41.91
48872;BME280;36154;51.674;7.824;2023-03-03T14:49:15;101654.03;;;20.78;41.80
48872;BME280;36154;51.674;7.824;2023-03-03T14:51:52;101648.00;;;20.79;42.00
48872;BME280;36154;51.674;7.824;2023-03-03T14:54:36;101651.41;;;20.81;41.90
48872;BME280;36154;51.674;7.824;2023-03-03T14:59:35;101658.25;;;20.85;41.83
48872;BME280;36154;51.674;7.824;2023-03-03T15:04:37;101650.47;;;20.86;41.73
48872;BME280;36154;51.674;7.824;2023-03-03T15:07:36;101637.50;;;20.86;41.60
48872;BME280;36154;51.674;7.824;2023-03-03T15:10:03;101641.78;;;20.91;41.63
48872;BME280;36154;51.674;7.824;2023-03-03T15:26:26;101631.47;;;20.86;42.92
48872;BME280;36154;51.674;7.824;2023-03-03T15:31:30;101628.03;;;20.87;43.03
48872;BME280;36154;51.674;7.824;2023-03-03T15:36:44;101625.47;;;20.84;43.02
48872;BME280;36154;51.674;7.824;2023-03-03T15:41:50;101617.75;;;20.81;43.72
48872;BME280;36154;51.674;7.824;2023-03-03T15:49:53;101616.03;;;20.78;44.73
48872;BME280;36154;51.674;7.824;2023-03-03T15:52:42;101616.94;;;20.76;44.94
48872;BME280;36154;51.674;7.824;2023-03-03T16:00:34;101614.41;;;20.73;46.51
48872;BME280;36154;51.674;7.824;2023-03-03T16:03:13;101606.63;;;20.73;47.15